createdAt,value
2022-12-06T00:01:29.133Z,102107.09
2022-12-06T00:03:58.081Z,102107.09
2022-12-06T00:06:29.131Z,102102.63
2022-12-06T00:08:57.344Z,102105.25
2022-12-06T00:11:33.023Z,102096.34
2022-12-06T00:14:02.766Z,102104.38
2022-12-06T00:16:30.421Z,102092.66
2022-12-06T00:18:57.985Z,102092.88
2022-12-06T00:21:28.444Z,102104.47
2022-12-06T00:24:05.658Z,102104.38
2022-12-06T00:26:36.667Z,102099.16
2022-12-06T00:29:06.927Z,102094.50
2022-12-06T00:31:34.658Z,102094.91
2022-12-06T00:34:01.527Z,102094.59
2022-12-06T00:36:30.777Z,102095.47
2022-12-06T00:39:00.744Z,102102.63
2022-12-06T00:41:30.726Z,102098.19
2022-12-06T00:43:57.359Z,102083.31
2022-12-06T00:46:27.656Z,102089.34
2022-12-06T00:48:56.189Z,102087.34
2022-12-06T00:51:24.598Z,102077.78
2022-12-06T00:53:51.793Z,102091.09
2022-12-06T00:56:19.143Z,102098.28
2022-12-06T00:58:46.302Z,102093.81
2022-12-06T01:01:26.590Z,102101.94
2022-12-06T01:03:56.718Z,102094.69
2022-12-06T01:06:28.151Z,102088.53
2022-12-06T01:08:56.995Z,102109.81
2022-12-06T01:11:24.526Z,102102.63
2022-12-06T01:13:52.003Z,102096.44
2022-12-06T01:16:23.804Z,102103.59
2022-12-06T01:18:55.690Z,102103.59
2022-12-06T01:21:23.400Z,102094.69
2022-12-06T01:23:50.426Z,102087.75
2022-12-06T01:26:23.031Z,102101.16
2022-12-06T01:28:50.133Z,102093.03
2022-12-06T01:31:17.284Z,102102.03
2022-12-06T01:33:48.598Z,102100.19
2022-12-06T01:36:28.534Z,102099.47
2022-12-06T01:39:00.462Z,102097.53
2022-12-06T01:41:28.425Z,102095.09
2022-12-06T01:43:56.410Z,102106.50
2022-12-06T01:46:55.848Z,102102.09
2022-12-06T01:49:29.587Z,102096.75
2022-12-06T01:52:01.338Z,102102.81
2022-12-06T01:54:29.500Z,102101.16
2022-12-06T01:57:00.881Z,102095.75
2022-12-06T01:59:29.046Z,102102.81
2022-12-06T02:01:56.768Z,102086.00
2022-12-06T02:04:24.265Z,102099.22
2022-12-06T02:06:53.816Z,102101.06
2022-12-06T02:09:20.908Z,102097.38
2022-12-06T02:11:47.534Z,102082.53
2022-12-06T02:14:21.367Z,102089.50
2022-12-06T02:17:06.758Z,102094.69
2022-12-06T02:20:00.855Z,102091.09
2022-12-06T02:22:39.585Z,102088.63
2022-12-06T02:25:43.799Z,102091.97
2022-12-06T02:28:27.783Z,102096.53
2022-12-06T02:31:12.454Z,102089.34
2022-12-06T02:34:14.334Z,102084.81
2022-12-06T02:36:49.389Z,102090.16
2022-12-06T02:39:34.619Z,102074.94
2022-12-06T02:42:10.511Z,102071.50
2022-12-06T02:44:47.991Z,102077.56
2022-12-06T02:47:20.808Z,102074.00
2022-12-06T02:49:50.255Z,102066.88
2022-12-06T02:52:24.198Z,102080.19
2022-12-06T02:54:52.432Z,102080.09
2022-12-06T02:57:27.203Z,102078.50
2022-12-06T02:59:54.907Z,102069.53
2022-12-06T03:02:22.878Z,102046.81
2022-12-06T03:05:08.008Z,102071.38
2022-12-06T03:07:44.362Z,102065.19
2022-12-06T03:10:40.717Z,102081.94
2022-12-06T03:13:19.898Z,102081.13
2022-12-06T03:16:15.340Z,102077.47
2022-12-06T03:18:49.869Z,102074.06
2022-12-06T03:21:31.139Z,102067.72
2022-12-06T03:23:58.273Z,102081.81
2022-12-06T03:26:29.346Z,102076.69
2022-12-06T03:28:58.101Z,102080.97
2022-12-06T03:31:28.569Z,102081.94
2022-12-06T03:34:00.344Z,102076.84
2022-12-06T03:36:33.699Z,102080.00
2022-12-06T03:39:03.994Z,102086.38
2022-12-06T03:41:44.757Z,102082.63
2022-12-06T03:44:11.709Z,102073.09
2022-12-06T03:46:44.230Z,102077.97
2022-12-06T03:49:19.500Z,102079.03
2022-12-06T03:51:49.540Z,102070.97
2022-12-06T03:54:16.343Z,102077.13
2022-12-06T03:56:43.153Z,102086.97
2022-12-06T03:59:12.970Z,102078.84
2022-12-06T04:01:39.956Z,102081.72
2022-12-06T04:04:07.139Z,102071.78
2022-12-06T04:06:33.693Z,102078.94
2022-12-06T04:09:18.934Z,102080.69
2022-12-06T04:11:48.048Z,102078.84
2022-12-06T04:14:14.617Z,102069.34
2022-12-06T04:16:59.730Z,102078.06
2022-12-06T04:19:26.321Z,102078.94
2022-12-06T04:22:11.451Z,102070.03
2022-12-06T04:24:37.959Z,102067.50
2022-12-06T04:27:23.103Z,102079.81
2022-12-06T04:30:08.009Z,102062.09
2022-12-06T04:32:53.228Z,102066.53
2022-12-06T04:35:38.558Z,102081.72
2022-12-06T04:38:23.785Z,102079.03
2022-12-06T04:40:50.366Z,102067.72
2022-12-06T04:43:35.480Z,102066.81
2022-12-06T04:46:02.274Z,102077.47
2022-12-06T04:48:31.420Z,102073.31
2022-12-06T04:50:58.042Z,102078.56
2022-12-06T04:53:24.606Z,102074.31
2022-12-06T04:55:53.613Z,102074.31
2022-12-06T04:58:20.188Z,102070.03
2022-12-06T05:00:46.827Z,102066.53
2022-12-06T05:03:14.955Z,102053.53
2022-12-06T05:05:44.582Z,102066.63
2022-12-06T05:08:11.443Z,102061.47
2022-12-06T05:10:38.388Z,102070.19
2022-12-06T05:13:05.315Z,102055.47
2022-12-06T05:15:32.385Z,102064.78
2022-12-06T05:17:59.125Z,102060.69
2022-12-06T05:20:30.408Z,102051.88
2022-12-06T05:22:59.285Z,102058.00
2022-12-06T05:25:25.783Z,102062.38
2022-12-06T05:27:52.316Z,102071.34
2022-12-06T05:30:18.832Z,102059.91
2022-12-06T05:32:45.365Z,102059.91
2022-12-06T05:35:14.357Z,102062.47
2022-12-06T05:37:40.893Z,102051.97
2022-12-06T05:40:07.937Z,102067.06
2022-12-06T05:42:34.489Z,102061.91
2022-12-06T05:45:01.714Z,102057.31
2022-12-06T05:47:28.220Z,102049.63
2022-12-06T05:49:54.705Z,102063.59
2022-12-06T05:52:21.308Z,102059.28
2022-12-06T05:54:50.395Z,102061.13
2022-12-06T05:57:19.541Z,102057.75
2022-12-06T05:59:48.391Z,102056.97
2022-12-06T06:02:15.031Z,102061.66
2022-12-06T06:04:41.689Z,102067.97
2022-12-06T06:07:08.208Z,102070.59
2022-12-06T06:09:34.769Z,102060.97
2022-12-06T06:12:01.300Z,102074.31
2022-12-06T06:14:28.256Z,102075.41
2022-12-06T06:16:54.888Z,102060.63
2022-12-06T06:19:23.868Z,102077.03
2022-12-06T06:21:50.697Z,102073.47
2022-12-06T06:24:17.276Z,102073.47
2022-12-06T06:26:43.882Z,102086.09
2022-12-06T06:29:10.463Z,102081.59
2022-12-06T06:31:39.388Z,102074.50
2022-12-06T06:34:10.427Z,102072.47
2022-12-06T06:36:41.099Z,102061.31
2022-12-06T06:39:29.016Z,102071.72
2022-12-06T06:41:56.207Z,102077.22
2022-12-06T06:44:25.311Z,102068.66
2022-12-06T06:46:51.848Z,102051.19
2022-12-06T06:49:20.731Z,102060.69
2022-12-06T06:51:47.579Z,102063.50
2022-12-06T06:54:15.381Z,102067.00
2022-12-06T06:56:41.915Z,102073.13
2022-12-06T06:59:10.786Z,102070.59
2022-12-06T07:01:38.422Z,102067.00
2022-12-06T07:04:05.269Z,102060.09
2022-12-06T07:06:34.195Z,102068.81
2022-12-06T07:09:00.769Z,102069.09
2022-12-06T07:11:27.435Z,102065.50
2022-12-06T07:13:54.031Z,102063.84
2022-12-06T07:16:21.085Z,102062.88
2022-12-06T07:18:47.787Z,102065.50
2022-12-06T07:21:16.725Z,102067.34
2022-12-06T07:23:46.102Z,102068.22
2022-12-06T07:26:28.108Z,102062.88
2022-12-06T07:28:58.915Z,102073.88
2022-12-06T07:31:31.737Z,102060.59
2022-12-06T07:34:06.268Z,102065.06
2022-12-06T07:36:35.270Z,102066.84
2022-12-06T07:39:06.012Z,102076.69
2022-12-06T07:41:55.554Z,102073.78
2022-12-06T07:44:47.772Z,102074.66
2022-12-06T07:47:14.501Z,102063.22
2022-12-06T07:49:41.051Z,102056.88
2022-12-06T07:52:09.829Z,102074.50
2022-12-06T07:54:40.372Z,102069.25
2022-12-06T07:57:12.714Z,102077.03
2022-12-06T07:59:39.404Z,102074.50
2022-12-06T08:02:05.989Z,102066.53
2022-12-06T08:04:35.783Z,102081.41
2022-12-06T08:07:03.482Z,102080.47
2022-12-06T08:09:33.270Z,102086.47
2022-12-06T08:12:04.601Z,102079.06
2022-12-06T08:14:35.692Z,102073.91
2022-12-06T08:17:06.533Z,102082.44
2022-12-06T08:19:35.343Z,102077.75
2022-12-06T08:22:05.929Z,102075.44
2022-12-06T08:24:38.554Z,102086.59
2022-12-06T08:27:11.131Z,102081.53
2022-12-06T08:29:47.091Z,102087.19
2022-12-06T08:32:23.977Z,102088.41
2022-12-06T08:34:54.407Z,102085.00
2022-12-06T08:37:45.178Z,102091.53
2022-12-06T08:40:12.786Z,102095.28
2022-12-06T08:42:40.114Z,102088.91
2022-12-06T08:45:09.499Z,102106.88
2022-12-06T08:47:39.222Z,102106.88
2022-12-06T08:50:09.077Z,102114.22
2022-12-06T08:52:42.594Z,102112.28
2022-12-06T08:55:11.127Z,102112.28
2022-12-06T08:57:40.105Z,102112.38
2022-12-06T09:00:12.079Z,102103.41
2022-12-06T09:02:44.940Z,102105.94
2022-12-06T09:05:13.102Z,102112.13
2022-12-06T09:07:39.700Z,102106.81
2022-12-06T09:10:10.950Z,102110.28
2022-12-06T09:12:41.698Z,102116.31
2022-12-06T09:15:10.130Z,102118.94
2022-12-06T09:17:41.093Z,102112.50
2022-12-06T09:20:10.026Z,102109.97
2022-12-06T09:22:38.267Z,102111.44
2022-12-06T09:25:08.277Z,102116.69
2022-12-06T09:27:42.595Z,102110.09
2022-12-06T09:30:10.742Z,102103.13
2022-12-06T09:32:44.167Z,102118.34
2022-12-06T09:35:15.317Z,102119.22
2022-12-06T09:37:56.555Z,102122.81
2022-12-06T09:40:55.627Z,102121.31
2022-12-06T09:43:59.670Z,102122.56
2022-12-06T09:46:34.745Z,102117.75
2022-12-06T09:49:30.611Z,102113.97
2022-12-06T09:52:08.166Z,102117.50
2022-12-06T09:54:34.741Z,102116.41
2022-12-06T09:57:14.111Z,102107.25
2022-12-06T10:00:07.487Z,102113.94
2022-12-06T10:02:44.253Z,102108.34
2022-12-06T10:05:52.064Z,102111.91
2022-12-06T10:08:50.594Z,102113.41
2022-12-06T10:11:40.079Z,102111.13
2022-12-06T10:14:37.402Z,102106.09
2022-12-06T10:17:37.383Z,102100.22
2022-12-06T10:20:07.059Z,102101.38
2022-12-06T10:22:48.170Z,102097.34
2022-12-06T10:25:26.049Z,102103.25
2022-12-06T10:28:13.414Z,102098.41
2022-12-06T10:30:52.458Z,102099.19
2022-12-06T10:33:43.566Z,102090.00
2022-12-06T10:36:16.089Z,102104.06
2022-12-06T10:38:50.978Z,102099.88
2022-12-06T10:41:17.589Z,102099.31
2022-12-06T10:43:55.458Z,102098.13
2022-12-06T10:47:06.811Z,102094.91
2022-12-06T10:49:55.641Z,102088.91
2022-12-06T10:52:34.556Z,102084.53
2022-12-06T10:55:10.376Z,102081.31
2022-12-06T10:57:53.943Z,102074.22
2022-12-06T11:00:24.387Z,102081.31
2022-12-06T11:03:04.385Z,102084.38
2022-12-06T11:05:37.841Z,102077.69
2022-12-06T11:08:15.461Z,102064.97
2022-12-06T11:10:45.047Z,102082.69
2022-12-06T11:13:24.572Z,102090.44
2022-12-06T11:16:20.656Z,102082.66
2022-12-06T11:18:51.573Z,102088.34
2022-12-06T11:21:33.490Z,102089.19
2022-12-06T11:24:08.499Z,102086.88
2022-12-06T11:26:43.701Z,102081.44
2022-12-06T11:29:15.034Z,102062.47
2022-12-06T11:31:50.618Z,102078.38
2022-12-06T11:34:23.158Z,102082.91
2022-12-06T11:36:58.185Z,102066.25
2022-12-06T11:39:27.100Z,102078.28
2022-12-06T11:41:57.412Z,102078.28
2022-12-06T11:44:28.202Z,102081.75
2022-12-06T11:47:00.683Z,102069.66
2022-12-06T11:49:38.889Z,102077.81
2022-12-06T11:52:13.485Z,102076.09
2022-12-06T11:54:53.940Z,102047.44
2022-12-06T11:57:42.769Z,102050.94
2022-12-06T12:00:18.551Z,102066.16
2022-12-06T12:02:47.313Z,102049.19
2022-12-06T12:05:19.780Z,102058.44
2022-12-06T12:08:02.249Z,102051.66
2022-12-06T12:10:32.136Z,102040.56
2022-12-06T12:13:35.121Z,102043.19
2022-12-06T12:16:12.335Z,102041.47
2022-12-06T12:18:43.945Z,102033.41
2022-12-06T12:21:13.242Z,102029.41
2022-12-06T12:23:47.712Z,102024.69
2022-12-06T12:26:19.628Z,102021.94
2022-12-06T12:29:04.863Z,102012.78
2022-12-06T12:31:31.829Z,102008.09
2022-12-06T12:34:27.436Z,102019.97
2022-12-06T12:36:58.934Z,102009.94
2022-12-06T12:39:45.611Z,102005.13
2022-12-06T12:42:35.156Z,102012.53
2022-12-06T12:45:07.303Z,102010.44
2022-12-06T12:47:56.713Z,102000.13
2022-12-06T12:50:26.073Z,102016.44
2022-12-06T12:52:53.498Z,102012.13
2022-12-06T12:55:27.524Z,102003.41
2022-12-06T12:57:56.622Z,101998.19
2022-12-06T13:00:36.445Z,101996.22
2022-12-06T13:03:28.582Z,102002.75
2022-12-06T13:05:57.662Z,101996.25
2022-12-06T13:08:33.736Z,102008.63
2022-12-06T13:11:02.734Z,102004.84
2022-12-06T13:13:53.800Z,102011.94
2022-12-06T13:16:29.723Z,102007.47
2022-12-06T13:19:59.337Z,102008.44
2022-12-06T13:22:29.915Z,102006.72
2022-12-06T13:25:07.907Z,101998.00
2022-12-06T13:27:43.436Z,101986.91
2022-12-06T13:30:19.491Z,101984.72
2022-12-06T13:32:54.652Z,101985.81
2022-12-06T13:35:31.640Z,101987.66
2022-12-06T13:38:01.681Z,101976.56
2022-12-06T13:40:45.618Z,101979.09
2022-12-06T13:43:40.181Z,101988.97
2022-12-06T13:46:07.245Z,101983.75
2022-12-06T13:48:33.794Z,101974.72
2022-12-06T13:51:12.995Z,101974.81
2022-12-06T13:54:09.815Z,101975.72
2022-12-06T13:56:36.339Z,101975.81
2022-12-06T13:59:25.837Z,101966.13
2022-12-06T14:01:57.098Z,101961.75
2022-12-06T14:07:03.510Z,101974.41
2022-12-06T14:09:45.773Z,101958.41
2022-12-06T14:12:26.563Z,101976.38
2022-12-06T14:15:05.909Z,101974.81
2022-12-06T14:18:01.639Z,101983.09
2022-12-06T14:20:29.035Z,101968.16
2022-12-06T14:22:56.456Z,101976.22
2022-12-06T14:25:26.979Z,101966.31
2022-12-06T14:28:04.111Z,101961.19
2022-12-06T14:30:31.085Z,101954.34
2022-12-06T14:32:59.416Z,101960.75
2022-12-06T14:35:29.991Z,101955.75
2022-12-06T14:37:57.753Z,101965.88
2022-12-06T14:41:10.803Z,101956.31
2022-12-06T14:43:38.851Z,101953.81
2022-12-06T14:46:08.680Z,101955.50
2022-12-06T14:48:54.315Z,101955.63
2022-12-06T14:51:26.903Z,101953.00
2022-12-06T14:53:53.578Z,101954.97
2022-12-06T14:56:31.962Z,101952.34
2022-12-06T15:00:13.122Z,101955.19
2022-12-06T15:02:28.671Z,101946.06
2022-12-06T15:04:57.396Z,101947.91
2022-12-06T15:07:48.480Z,101942.59
2022-12-06T15:10:26.067Z,101940.84
2022-12-06T15:12:58.212Z,101944.88
2022-12-06T15:15:33.729Z,101938.00
2022-12-06T15:18:22.506Z,101947.13
2022-12-06T15:20:50.070Z,101933.97
2022-12-06T15:23:38.753Z,101947.22
2022-12-06T15:26:08.432Z,101949.94
2022-12-06T15:28:35.850Z,101925.47
2022-12-06T15:31:07.525Z,101933.19
2022-12-06T15:33:36.660Z,101943.75
2022-12-06T15:36:03.614Z,101943.84
2022-12-06T15:38:32.400Z,101938.06
2022-12-06T15:41:01.211Z,101926.66
2022-12-06T15:43:34.469Z,101927.84
2022-12-06T15:46:07.313Z,101937.66
2022-12-06T15:48:37.700Z,101936.91
2022-12-06T15:51:11.119Z,101930.69
2022-12-06T15:53:42.157Z,101926.34
2022-12-06T15:56:20.038Z,101942.44
2022-12-06T15:58:47.406Z,101933.72
2022-12-06T16:01:32.766Z,101933.06
2022-12-06T16:03:59.382Z,101940.03
2022-12-06T16:06:27.657Z,101933.94
2022-12-06T16:08:54.463Z,101940.03
2022-12-06T16:11:24.019Z,101942.94
2022-12-06T16:13:50.866Z,101936.31
2022-12-06T16:16:20.327Z,101940.53
2022-12-06T16:18:50.411Z,101937.72
2022-12-06T16:21:22.958Z,101936.88
2022-12-06T16:24:17.178Z,101926.50
2022-12-06T16:26:46.729Z,101930.88
2022-12-06T16:29:32.120Z,101930.09
2022-12-06T16:32:00.892Z,101931.94
2022-12-06T16:34:37.717Z,101939.22
2022-12-06T16:37:07.078Z,101929.53
2022-12-06T16:39:35.170Z,101936.72
2022-12-06T16:42:04.037Z,101919.97
2022-12-06T16:44:33.910Z,101936.16
2022-12-06T16:47:01.861Z,101926.38
2022-12-06T16:49:45.807Z,101924.63
2022-12-06T16:52:16.708Z,101929.84
2022-12-06T16:54:46.647Z,101922.09
2022-12-06T16:57:14.557Z,101916.56
2022-12-06T16:59:42.918Z,101929.50
2022-12-06T17:02:26.480Z,101925.25
2022-12-06T17:04:53.435Z,101886.94
2022-12-06T17:07:20.324Z,101909.88
2022-12-06T17:09:46.850Z,101905.84
2022-12-06T17:12:15.225Z,101911.56
2022-12-06T17:14:42.466Z,101904.78
2022-12-06T17:17:17.616Z,101911.31
2022-12-06T17:19:44.740Z,101904.31
2022-12-06T17:22:12.896Z,101894.75
2022-12-06T17:24:39.750Z,101896.81
2022-12-06T17:27:09.526Z,101904.44
2022-12-06T17:29:39.117Z,101909.97
2022-12-06T17:32:06.552Z,101887.16
2022-12-06T17:34:36.266Z,101907.38
2022-12-06T17:37:03.144Z,101910.06
2022-12-06T17:39:29.813Z,101910.22
2022-12-06T17:42:17.522Z,101911.84
2022-12-06T17:44:44.127Z,101911.06
2022-12-06T17:47:10.866Z,101895.47
2022-12-06T17:49:38.451Z,101900.31
2022-12-06T17:52:07.742Z,101902.06
2022-12-06T17:54:34.256Z,101886.94
2022-12-06T17:57:00.982Z,101889.38
2022-12-06T17:59:30.475Z,101897.13
2022-12-06T18:02:16.901Z,101900.59
2022-12-06T18:04:45.283Z,101903.31
2022-12-06T18:07:13.160Z,101892.66
2022-12-06T18:09:39.958Z,101895.16
2022-12-06T18:12:09.226Z,101881.78
2022-12-06T18:14:38.010Z,101901.25
2022-12-06T18:17:04.655Z,101904.06
2022-12-06T18:19:31.964Z,101896.22
2022-12-06T18:21:58.495Z,101892.75
2022-12-06T18:24:29.210Z,101905.81
2022-12-06T18:26:59.966Z,101895.34
2022-12-06T18:29:26.496Z,101900.69
2022-12-06T18:31:53.086Z,101888.19
2022-12-06T18:34:23.290Z,101893.22
2022-12-06T18:36:50.971Z,101883.09
2022-12-06T18:39:24.595Z,101890.13
2022-12-06T18:41:53.186Z,101886.00
2022-12-06T18:44:22.236Z,101884.63
2022-12-06T18:46:49.020Z,101888.44
2022-12-06T18:49:15.741Z,101872.66
2022-12-06T18:51:45.489Z,101883.41
2022-12-06T18:54:14.138Z,101893.94
2022-12-06T18:56:41.458Z,101872.56
2022-12-06T18:59:09.221Z,101880.19
2022-12-06T19:01:38.761Z,101878.16
2022-12-06T19:04:06.936Z,101879.13
2022-12-06T19:06:40.272Z,101880.88
2022-12-06T19:09:13.968Z,101875.72
2022-12-06T19:11:42.894Z,101883.97
2022-12-06T19:14:10.210Z,101886.78
2022-12-06T19:16:48.415Z,101889.28
2022-12-06T19:19:35.195Z,101885.91
2022-12-06T19:22:04.384Z,101897.16
2022-12-06T19:24:31.265Z,101884.38
2022-12-06T19:26:58.230Z,101853.22
2022-12-06T19:29:25.506Z,101875.38
2022-12-06T19:31:52.675Z,101879.34
2022-12-06T19:34:25.602Z,101880.97
2022-12-06T19:36:54.128Z,101884.06
2022-12-06T19:39:21.436Z,101877.25
2022-12-06T19:42:06.796Z,101876.09
2022-12-06T19:44:33.372Z,101888.38
2022-12-06T19:47:00.234Z,101888.75
2022-12-06T19:49:28.288Z,101885.34
2022-12-06T19:51:55.356Z,101879.81
2022-12-06T19:54:25.394Z,101874.50
2022-12-06T19:56:53.816Z,101890.28
2022-12-06T19:59:21.654Z,101876.66
2022-12-06T20:01:48.865Z,101879.25
2022-12-06T20:04:24.847Z,101890.22
2022-12-06T20:06:52.857Z,101890.03
2022-12-06T20:09:22.312Z,101899.78
2022-12-06T20:12:01.472Z,101913.84
2022-12-06T20:14:46.965Z,101902.75
2022-12-06T20:17:19.414Z,101897.72
2022-12-06T20:19:46.695Z,101877.97
2022-12-06T20:22:14.497Z,101875.09
2022-12-06T20:24:41.318Z,101880.22
2022-12-06T20:27:10.546Z,101880.41
2022-12-06T20:29:37.188Z,101872.19
2022-12-06T20:32:04.605Z,101869.66
2022-12-06T20:34:34.062Z,101862.91
2022-12-06T20:37:03.684Z,101882.25
2022-12-06T20:39:32.741Z,101873.75
2022-12-06T20:42:03.435Z,101882.34
2022-12-06T20:44:30.418Z,101878.97
2022-12-06T20:47:00.115Z,101871.97
2022-12-06T20:49:26.975Z,101870.84
2022-12-06T20:51:53.972Z,101885.16
2022-12-06T20:54:22.026Z,101882.72
2022-12-06T20:56:51.696Z,101892.09
2022-12-06T20:59:19.018Z,101890.19
2022-12-06T21:01:45.837Z,101883.78
2022-12-06T21:04:13.696Z,101855.72
2022-12-06T21:06:40.786Z,101876.31
2022-12-06T21:09:07.407Z,101880.22
2022-12-06T21:11:34.050Z,101875.84
2022-12-06T21:14:00.678Z,101878.56
2022-12-06T21:16:29.912Z,101879.53
2022-12-06T21:18:59.571Z,101876.25
2022-12-06T21:21:32.386Z,101858.13
2022-12-06T21:24:00.822Z,101876.81
2022-12-06T21:26:28.276Z,101881.47
2022-12-06T21:28:55.212Z,101873.53
2022-12-06T21:31:29.640Z,101868.72
2022-12-06T21:33:56.802Z,101873.47
2022-12-06T21:36:23.959Z,101869.56
2022-12-06T21:38:50.798Z,101878.50
2022-12-06T21:41:17.388Z,101877.31
2022-12-06T21:43:44.441Z,101874.63
2022-12-06T21:46:14.966Z,101872.91
2022-12-06T21:48:42.448Z,101867.75
2022-12-06T21:51:11.564Z,101875.59
2022-12-06T21:53:38.864Z,101882.06
2022-12-06T21:56:10.463Z,101863.66
2022-12-06T21:58:37.347Z,101870.47
2022-12-06T22:01:09.609Z,101874.81
2022-12-06T22:03:36.586Z,101877.41
2022-12-06T22:06:08.114Z,101868.44
2022-12-06T22:08:38.104Z,101868.53
2022-12-06T22:11:13.515Z,101880.81
2022-12-06T22:13:40.516Z,101873.06
2022-12-06T22:16:09.365Z,101874.81
2022-12-06T22:18:44.025Z,101877.50
2022-12-06T22:21:18.218Z,101883.91
2022-12-06T22:23:46.324Z,101878.69
2022-12-06T22:26:15.964Z,101882.16
2022-12-06T22:28:42.673Z,101867.34
2022-12-06T22:31:15.300Z,101876.34
2022-12-06T22:33:42.550Z,101869.53
2022-12-06T22:36:10.165Z,101878.53
2022-12-06T22:38:36.853Z,101878.41
2022-12-06T22:41:04.216Z,101866.28
2022-12-06T22:43:33.816Z,101876.25
2022-12-06T22:46:09.153Z,101879.81
2022-12-06T22:48:36.227Z,101873.91
2022-12-06T22:51:16.273Z,101869.81
2022-12-06T22:53:47.400Z,101880.13
2022-12-06T22:56:15.258Z,101879.00
2022-12-06T22:58:42.044Z,101877.97
2022-12-06T23:01:15.901Z,101867.66
2022-12-06T23:03:45.207Z,101871.44
2022-12-06T23:06:14.701Z,101869.09
2022-12-06T23:08:41.743Z,101882.59
2022-12-06T23:11:19.432Z,101882.00
2022-12-06T23:13:49.241Z,101884.63
2022-12-06T23:16:26.299Z,101887.56
2022-12-06T23:18:55.942Z,101891.06
2022-12-06T23:21:25.057Z,101880.59
2022-12-06T23:23:54.617Z,101885.03
2022-12-06T23:26:24.114Z,101874.81
2022-12-06T23:28:51.432Z,101882.06
2022-12-06T23:31:22.848Z,101871.00
2022-12-06T23:33:58.543Z,101864.53
2022-12-06T23:36:27.944Z,101879.28
2022-12-06T23:38:54.987Z,101881.28
2022-12-06T23:41:23.931Z,101868.19
2022-12-06T23:43:51.240Z,101877.44
2022-12-06T23:46:23.590Z,101877.25
2022-12-06T23:48:51.076Z,101858.09
2022-12-06T23:51:23.227Z,101874.97
2022-12-06T23:53:56.938Z,101871.59
2022-12-06T23:56:24.235Z,101860.50
2022-12-06T23:58:51.969Z,101878.97
